Time;durP1;ratioP1;P1;durP2;ratioP2;P2;SDS_P1;SDS_P2;PMS_P1;PMS_P2;Temp;Humidity;BMP_temperature;BMP_pressure;BME280_temperature;BME280_humidity;BME280_pressure;Samples;Min_cycle;Max_cycle;Signal;HPM_P1;HPM_P2
2023/07/23 00:02:23;;;;;;;8.55;7.82;;;18.40;95.90;;;;;;5056638;28;20024;-92
2023/07/23 00:04:49;;;;;;;7.75;7.05;;;18.40;95.90;;;;;;5056495;28;20560;-90
2023/07/23 00:07:15;;;;;;;9.68;8.70;;;18.40;95.90;;;;;;5056092;28;20080;-92
2023/07/23 00:09:41;;;;;;;8.95;8.23;;;18.50;95.90;;;;;;5040297;28;20029;-91
2023/07/23 00:12:09;;;;;;;8.77;7.97;;;18.50;95.90;;;;;;5056463;28;20135;-92
2023/07/23 00:14:34;;;;;;;9.90;8.70;;;18.40;96.10;;;;;;5056499;28;20033;-91
2023/07/23 00:17:00;;;;;;;9.07;8.18;;;18.40;95.80;;;;;;5039449;28;20511;-91
2023/07/23 00:19:26;;;;;;;10.05;9.05;;;18.40;95.80;;;;;;5023027;28;20032;-91
2023/07/23 00:21:53;;;;;;;11.02;9.18;;;18.40;95.80;;;;;;5039562;28;20381;-91
2023/07/23 00:24:21;;;;;;;8.95;8.15;;;18.40;95.80;;;;;;5055538;28;20473;-91
2023/07/23 00:26:47;;;;;;;9.25;8.20;;;18.40;95.80;;;;;;5055721;28;20119;-88
2023/07/23 00:29:13;;;;;;;9.50;8.60;;;18.40;95.80;;;;;;5056584;28;20048;-91
2023/07/23 00:31:38;;;;;;;8.65;7.85;;;18.40;95.80;;;;;;5056264;28;20021;-92
2023/07/23 00:34:06;;;;;;;10.23;9.13;;;18.40;95.80;;;;;;5055985;28;20074;-90
2023/07/23 00:36:32;;;;;;;8.73;7.93;;;18.30;95.80;;;;;;5057461;28;20043;-92
2023/07/23 00:38:58;;;;;;;8.32;7.45;;;18.40;95.80;;;;;;5029875;28;20120;-88
2023/07/23 00:41:23;;;;;;;8.32;7.43;;;18.30;95.90;;;;;;5078918;28;20009;-91
2023/07/23 00:43:49;;;;;;;7.95;7.18;;;18.30;95.90;;;;;;5073975;28;20031;-86
2023/07/23 00:46:15;;;;;;;7.57;6.78;;;18.30;95.90;;;;;;5049386;28;20061;-91
2023/07/23 00:48:40;;;;;;;7.47;6.72;;;18.30;95.90;;;;;;5062715;28;20029;-92
2023/07/23 00:51:06;;;;;;;8.70;6.95;;;18.30;96.00;;;;;;5038577;28;20033;-92
2023/07/23 00:53:32;;;;;;;8.93;7.25;;;18.30;95.90;;;;;;5038386;28;20021;-92
2023/07/23 00:55:59;;;;;;;7.13;6.43;;;18.30;96.00;;;;;;5054693;28;20032;-92
2023/07/23 00:58:25;;;;;;;6.50;5.90;;;18.30;96.00;;;;;;5054852;28;20021;-89
2023/07/23 01:00:54;;;;;;;7.05;6.45;;;18.30;95.90;;;;;;5054513;28;20090;-89
2023/07/23 01:03:23;;;;;;;7.65;6.80;;;18.30;95.90;;;;;;5055089;28;20040;-91
2023/07/23 01:05:50;;;;;;;7.82;6.75;;;18.30;95.90;;;;;;5055034;28;20021;-91
2023/07/23 01:08:19;;;;;;;7.07;6.40;;;18.30;95.90;;;;;;5053884;28;20503;-92
2023/07/23 01:10:44;;;;;;;7.72;6.93;;;18.30;96.00;;;;;;5055007;28;20475;-92
2023/07/23 01:13:11;;;;;;;7.05;6.35;;;18.30;96.00;;;;;;5054499;28;20021;-90
2023/07/23 01:15:37;;;;;;;6.85;6.15;;;18.30;96.10;;;;;;5054411;28;20025;-92
2023/07/23 01:18:04;;;;;;;7.45;5.93;;;18.20;96.10;;;;;;5055430;28;20361;-92
2023/07/23 01:20:29;;;;;;;6.72;5.70;;;18.30;96.40;;;;;;5054114;28;20025;-92
2023/07/23 01:22:55;;;;;;;7.35;5.85;;;18.30;96.10;;;;;;5054113;28;20029;-91
2023/07/23 01:25:21;;;;;;;7.05;5.70;;;18.30;96.10;;;;;;5037592;28;20464;-90
2023/07/23 01:27:47;;;;;;;7.65;5.72;;;18.20;96.10;;;;;;5037860;28;20029;-92
2023/07/23 01:30:12;;;;;;;6.47;5.88;;;18.30;96.10;;;;;;5054538;28;20021;-92
2023/07/23 01:32:39;;;;;;;6.85;6.13;;;18.20;96.10;;;;;;5055475;28;20453;-91
2023/07/23 01:35:14;;;;;;;6.45;5.85;;;18.20;96.20;;;;;;5055352;28;20025;-93
2023/07/23 01:37:41;;;;;;;7.65;5.72;;;18.20;96.20;;;;;;5054695;28;20082;-91
2023/07/23 01:40:07;;;;;;;8.90;5.88;;;18.20;96.20;;;;;;5054151;28;20036;-91
2023/07/23 01:42:34;;;;;;;6.75;6.03;;;18.20;96.20;;;;;;5037637;28;20416;-91
2023/07/23 01:45:06;;;;;;;7.55;6.07;;;18.20;96.20;;;;;;5054555;28;20029;-92
2023/07/23 01:47:31;;;;;;;6.55;5.85;;;18.20;96.30;;;;;;5037434;28;20071;-93
2023/07/23 01:49:57;;;;;;;6.72;6.03;;;18.20;96.20;;;;;;5037636;28;20139;-89
2023/07/23 01:52:23;;;;;;;5.65;5.15;;;18.20;96.20;;;;;;5053903;28;20131;-91
2023/07/23 01:54:49;;;;;;;8.55;6.30;;;18.20;96.20;;;;;;5054050;28;20025;-92
2023/07/23 01:57:15;;;;;;;7.80;5.55;;;18.20;96.20;;;;;;5053738;28;20025;-93
2023/07/23 01:59:40;;;;;;;7.15;5.95;;;18.20;96.20;;;;;;5053919;28;20025;-92
2023/07/23 02:02:09;;;;;;;6.97;6.13;;;18.20;96.50;;;;;;5053794;28;20075;-91
2023/07/23 02:04:35;;;;;;;8.13;6.25;;;18.20;96.30;;;;;;5055141;28;20021;-93
2023/07/23 02:07:01;;;;;;;7.55;5.68;;;18.20;96.30;;;;;;5055796;28;20098;-92
2023/07/23 02:09:27;;;;;;;6.70;6.10;;;18.20;96.30;;;;;;5057184;28;20078;-92
2023/07/23 02:11:53;;;;;;;6.80;5.68;;;18.20;96.30;;;;;;5057539;28;20028;-92
2023/07/23 02:14:19;;;;;;;6.22;5.63;;;18.20;96.30;;;;;;5056959;28;20460;-92
2023/07/23 02:16:44;;;;;;;6.45;5.72;;;18.20;96.30;;;;;;5074880;28;20035;-91
2023/07/23 02:19:12;;;;;;;7.72;5.90;;;18.20;96.30;;;;;;5040652;28;20048;-92
2023/07/23 02:21:38;;;;;;;6.82;5.75;;;18.20;96.30;;;;;;5075086;28;20425;-92
2023/07/23 02:24:05;;;;;;;9.98;6.25;;;18.20;96.30;;;;;;5075864;28;20029;-92
2023/07/23 02:26:31;;;;;;;5.45;4.93;;;18.20;96.30;;;;;;5042423;28;20075;-93
2023/07/23 02:28:57;;;;;;;6.85;5.28;;;18.20;96.30;;;;;;5061083;28;20078;-92
2023/07/23 02:31:22;;;;;;;6.65;5.13;;;18.20;96.20;;;;;;5079470;28;20048;-92
2023/07/23 02:33:48;;;;;;;6.55;5.40;;;18.20;96.20;;;;;;5080159;28;20025;-90
2023/07/23 02:36:14;;;;;;;6.57;5.50;;;18.20;96.20;;;;;;5073012;28;20033;-92
2023/07/23 02:38:40;;;;;;;6.65;4.97;;;18.20;96.20;;;;;;5067371;28;20017;-90
2023/07/23 02:41:06;;;;;;;5.55;4.88;;;18.20;96.20;;;;;;5060241;28;20563;-92
2023/07/23 02:43:32;;;;;;;5.65;5.05;;;18.20;96.20;;;;;;5057486;28;20052;-91
2023/07/23 02:45:58;;;;;;;5.70;4.70;;;18.20;96.20;;;;;;5056568;28;20033;-90
2023/07/23 02:48:23;;;;;;;6.72;5.13;;;18.20;96.10;;;;;;5056308;28;20021;-91
2023/07/23 02:50:52;;;;;;;5.43;4.78;;;18.20;96.10;;;;;;5056879;28;20044;-88
2023/07/23 02:53:18;;;;;;;6.05;5.00;;;18.20;96.20;;;;;;5056339;28;20024;-91
2023/07/23 02:55:45;;;;;;;5.78;4.63;;;18.20;96.10;;;;;;5040210;28;20059;-92
2023/07/23 02:58:10;;;;;;;7.18;4.80;;;18.20;96.10;;;;;;5056896;28;20059;-93
2023/07/23 03:00:40;;;;;;;6.80;5.90;;;18.20;96.10;;;;;;5056657;28;20069;-92
2023/07/23 03:03:07;;;;;;;5.32;4.82;;;18.20;96.10;;;;;;5057443;28;20056;-92
2023/07/23 03:05:36;;;;;;;6.97;5.45;;;18.20;96.20;;;;;;5056825;28;20114;-91
2023/07/23 03:08:02;;;;;;;6.80;5.13;;;18.20;96.20;;;;;;5056550;28;20049;-92
2023/07/23 03:10:29;;;;;;;6.97;5.53;;;18.20;96.20;;;;;;5055896;28;20020;-92
2023/07/23 03:12:54;;;;;;;6.03;4.90;;;18.10;96.30;;;;;;5073213;28;20033;-92
2023/07/23 03:15:23;;;;;;;5.82;4.78;;;18.10;96.30;;;;;;5043162;28;20033;-90
2023/07/23 03:17:51;;;;;;;7.43;4.68;;;18.20;96.30;;;;;;5060184;28;20141;-91
2023/07/23 03:20:17;;;;;;;5.85;5.15;;;18.20;96.30;;;;;;5060207;28;20025;-91
2023/07/23 03:22:43;;;;;;;6.07;5.18;;;18.20;96.20;;;;;;5059940;28;20426;-90
2023/07/23 03:25:12;;;;;;;7.10;5.55;;;18.20;96.20;;;;;;5060432;28;20032;-87
2023/07/23 03:27:38;;;;;;;6.20;4.97;;;18.20;96.10;;;;;;5078015;28;20028;-91
2023/07/23 03:30:04;;;;;;;6.30;4.95;;;18.20;96.20;;;;;;5077926;28;20037;-91
2023/07/23 03:32:29;;;;;;;5.80;5.15;;;18.20;96.20;;;;;;5059600;28;20077;-90
2023/07/23 03:34:55;;;;;;;7.28;4.90;;;18.20;96.20;;;;;;5078129;28;20026;-90
2023/07/23 03:37:21;;;;;;;6.32;5.55;;;18.20;96.20;;;;;;5060151;28;20040;-92
2023/07/23 03:39:47;;;;;;;13.05;5.45;;;18.20;96.20;;;;;;5043744;28;20468;-91
2023/07/23 03:42:12;;;;;;;5.40;4.90;;;18.20;96.20;;;;;;5077723;28;20021;-91
2023/07/23 03:44:38;;;;;;;5.38;4.60;;;18.20;96.40;;;;;;5063081;28;20348;-92
2023/07/23 03:47:10;;;;;;;5.35;4.85;;;18.20;96.30;;;;;;5060151;28;20033;-91
2023/07/23 03:49:36;;;;;;;6.88;5.72;;;18.20;96.30;;;;;;5061080;28;20048;-91
2023/07/23 03:52:02;;;;;;;5.82;4.47;;;18.20;96.30;;;;;;5059938;28;20020;-92
2023/07/23 03:54:27;;;;;;;7.63;6.00;;;18.20;96.20;;;;;;5059889;28;20055;-92
2023/07/23 03:56:53;;;;;;;5.57;5.07;;;18.20;96.30;;;;;;5059643;28;20115;-91
2023/07/23 03:59:19;;;;;;;5.63;5.13;;;18.20;96.20;;;;;;5059507;28;20392;-92
2023/07/23 04:01:45;;;;;;;5.93;5.22;;;18.20;96.40;;;;;;5059699;28;20107;-91
2023/07/23 04:04:10;;;;;;;5.63;5.10;;;18.20;96.10;;;;;;5059453;28;20051;-91
2023/07/23 04:06:36;;;;;;;7.63;5.18;;;18.30;96.10;;;;;;5042945;28;20036;-90
2023/07/23 04:09:02;;;;;;;6.43;5.63;;;18.30;96.00;;;;;;5042512;28;20049;-90
2023/07/23 04:11:27;;;;;;;7.28;5.28;;;18.30;96.00;;;;;;5043416;28;20024;-90
2023/07/23 04:13:53;;;;;;;6.90;6.10;;;18.30;95.90;;;;;;5047146;28;20048;-91
2023/07/23 04:16:19;;;;;;;6.88;5.53;;;18.30;95.80;;;;;;5062711;28;20020;-86
2023/07/23 04:18:49;;;;;;;6.72;5.53;;;18.30;95.70;;;;;;5049575;28;20434;-91
2023/07/23 04:21:18;;;;;;;8.63;5.53;;;18.30;95.70;;;;;;5082289;28;20025;-89
2023/07/23 04:23:50;;;;;;;6.15;5.35;;;18.30;95.60;;;;;;5049322;28;20048;-90
2023/07/23 04:26:17;;;;;;;6.43;5.32;;;18.40;95.60;;;;;;5076414;28;20021;-88
2023/07/23 04:28:45;;;;;;;6.55;5.10;;;18.40;95.50;;;;;;5051542;28;20048;-92
2023/07/23 04:31:11;;;;;;;5.78;5.13;;;18.40;95.50;;;;;;5062301;28;20078;-92
2023/07/23 04:33:36;;;;;;;5.70;5.10;;;18.40;95.50;;;;;;5059267;28;20055;-91
2023/07/23 04:36:07;;;;;;;5.70;4.85;;;18.40;95.50;;;;;;5076194;28;20064;-90
2023/07/23 04:38:36;;;;;;;6.32;5.05;;;18.40;95.40;;;;;;5058746;28;20107;-90
2023/07/23 04:41:02;;;;;;;7.75;4.82;;;18.40;95.40;;;;;;5076278;28;20052;-90
2023/07/23 04:43:28;;;;;;;5.80;5.22;;;18.40;95.40;;;;;;5041641;28;20067;-92
2023/07/23 04:45:54;;;;;;;6.28;5.35;;;18.40;95.30;;;;;;5058311;28;20025;-92
2023/07/23 04:48:19;;;;;;;5.63;4.60;;;18.50;95.30;;;;;;5041634;28;20039;-86
2023/07/23 04:50:45;;;;;;;5.60;5.00;;;18.50;95.20;;;;;;5040176;28;20025;-92
2023/07/23 04:53:11;;;;;;;6.50;4.85;;;18.50;95.20;;;;;;5041537;28;20032;-91
2023/07/23 04:55:37;;;;;;;7.63;4.95;;;18.50;95.10;;;;;;5041670;28;20024;-92
2023/07/23 04:58:03;;;;;;;6.97;5.13;;;18.50;95.10;;;;;;5041718;28;20025;-92
2023/07/23 05:00:29;;;;;;;7.47;5.80;;;18.50;95.00;;;;;;5025171;28;20029;-91
2023/07/23 05:02:55;;;;;;;5.93;5.32;;;18.60;95.00;;;;;;5058107;28;20035;-92
2023/07/23 05:05:23;;;;;;;6.28;5.68;;;18.60;95.00;;;;;;5058142;28;20029;-91
2023/07/23 05:07:49;;;;;;;6.80;6.18;;;18.60;95.00;;;;;;5075844;28;20044;-91
2023/07/23 05:10:15;;;;;;;5.47;4.97;;;18.60;94.90;;;;;;5058549;28;20031;-91
2023/07/23 05:12:41;;;;;;;5.78;4.60;;;18.60;94.90;;;;;;5058338;28;20031;-91
2023/07/23 05:15:11;;;;;;;6.03;4.65;;;18.60;94.80;;;;;;5058553;28;20031;-91
2023/07/23 05:17:38;;;;;;;5.78;4.70;;;18.60;94.80;;;;;;5058269;28;20040;-92
2023/07/23 05:20:07;;;;;;;5.15;4.50;;;18.60;94.70;;;;;;5058516;28;20028;-91
2023/07/23 05:22:35;;;;;;;6.35;5.18;;;18.70;94.80;;;;;;5057705;28;20067;-93
2023/07/23 05:25:03;;;;;;;5.38;4.88;;;18.60;94.70;;;;;;5057765;28;20063;-92
2023/07/23 05:27:29;;;;;;;6.03;4.68;;;18.70;94.70;;;;;;5057925;28;20021;-91
2023/07/23 05:29:55;;;;;;;5.15;4.65;;;18.70;94.60;;;;;;5057983;28;20112;-91
2023/07/23 05:32:24;;;;;;;5.50;4.88;;;18.70;94.50;;;;;;5057671;28;20513;-90
2023/07/23 05:34:56;;;;;;;6.95;5.18;;;18.70;94.50;;;;;;5057827;28;20039;-91
2023/07/23 05:37:30;;;;;;;7.10;5.10;;;18.70;94.50;;;;;;5075024;28;20041;-91
2023/07/23 05:39:56;;;;;;;5.15;4.65;;;18.70;94.40;;;;;;5057819;28;20020;-92
2023/07/23 05:42:21;;;;;;;5.63;4.65;;;18.70;94.40;;;;;;5041361;28;20027;-91
2023/07/23 05:44:47;;;;;;;6.10;4.85;;;18.70;94.40;;;;;;5057430;28;20047;-92
2023/07/23 05:47:13;;;;;;;4.82;4.30;;;18.70;94.30;;;;;;5057428;28;20025;-92
2023/07/23 05:49:39;;;;;;;6.00;4.80;;;18.70;94.30;;;;;;5057116;28;20024;-91
2023/07/23 05:52:05;;;;;;;4.85;4.35;;;18.70;94.60;;;;;;5057647;28;20020;-93
2023/07/23 05:54:31;;;;;;;7.50;5.15;;;18.70;94.30;;;;;;5040573;28;20063;-92
2023/07/23 05:56:59;;;;;;;5.82;4.57;;;18.70;94.30;;;;;;5057339;28;20028;-94
2023/07/23 05:59:25;;;;;;;5.78;4.15;;;18.80;94.30;;;;;;5057507;28;20456;-91
2023/07/23 06:01:51;;;;;;;4.57;4.18;;;18.70;94.30;;;;;;5075078;28;20028;-92
2023/07/23 06:04:17;;;;;;;6.25;4.93;;;18.80;94.40;;;;;;5024224;28;20025;-91
2023/07/23 06:06:42;;;;;;;5.28;4.70;;;18.80;94.40;;;;;;5057687;28;20082;-90
2023/07/23 06:09:08;;;;;;;4.97;4.45;;;18.80;94.40;;;;;;5024959;28;20152;-92
2023/07/23 06:11:34;;;;;;;6.25;5.07;;;18.80;94.40;;;;;;5048120;28;20013;-88
2023/07/23 06:14:00;;;;;;;4.97;4.47;;;18.80;94.40;;;;;;5063103;28;20009;-93
2023/07/23 06:16:25;;;;;;;5.50;4.45;;;18.70;94.40;;;;;;5079560;28;20060;-91
2023/07/23 06:18:51;;;;;;;5.78;5.28;;;18.80;94.50;;;;;;5070109;28;20028;-91
2023/07/23 06:21:17;;;;;;;5.85;4.68;;;18.70;94.40;;;;;;5049934;28;20515;-93
2023/07/23 06:23:43;;;;;;;5.95;5.07;;;18.80;94.50;;;;;;5058618;28;20025;-91
2023/07/23 06:26:09;;;;;;;5.10;4.60;;;18.70;94.50;;;;;;5040180;28;20459;-91
2023/07/23 06:28:34;;;;;;;5.75;5.20;;;18.80;94.50;;;;;;5056859;28;20040;-91
2023/07/23 06:31:00;;;;;;;5.55;5.03;;;18.80;94.50;;;;;;5057196;28;20017;-92
2023/07/23 06:33:27;;;;;;;5.93;5.03;;;18.80;94.50;;;;;;5074607;28;20112;-91
2023/07/23 06:35:53;;;;;;;5.22;4.38;;;18.80;94.30;;;;;;5057213;28;20088;-92
2023/07/23 06:38:19;;;;;;;5.43;4.65;;;18.80;94.50;;;;;;5023808;28;20111;-91
2023/07/23 06:40:50;;;;;;;5.18;4.68;;;18.80;94.40;;;;;;5057100;28;20021;-92
2023/07/23 06:43:16;;;;;;;5.75;4.50;;;18.80;94.40;;;;;;5057060;28;20384;-92
2023/07/23 06:45:46;;;;;;;5.20;4.70;;;18.80;94.40;;;;;;5055940;28;20012;-92
2023/07/23 06:48:13;;;;;;;5.35;4.85;;;18.80;94.40;;;;;;5056901;28;20016;-93
2023/07/23 06:50:39;;;;;;;5.18;4.68;;;18.80;94.40;;;;;;5060140;28;20129;-91
2023/07/23 06:53:05;;;;;;;5.15;4.63;;;18.80;94.40;;;;;;5043874;28;20033;-91
2023/07/23 06:55:31;;;;;;;5.65;4.75;;;18.80;94.40;;;;;;5060523;28;20032;-91
2023/07/23 06:57:57;;;;;;;6.63;4.75;;;18.80;94.50;;;;;;5044029;28;20035;-90
2023/07/23 07:00:23;;;;;;;5.30;4.25;;;18.80;94.50;;;;;;5060819;28;20025;-91
2023/07/23 07:02:48;;;;;;;5.65;5.03;;;18.80;94.50;;;;;;5044283;28;20021;-90
2023/07/23 07:05:14;;;;;;;5.28;4.63;;;18.80;94.60;;;;;;5060848;28;20029;-92
2023/07/23 07:07:40;;;;;;;5.22;4.43;;;18.70;94.60;;;;;;5060358;28;20047;-93
2023/07/23 07:10:06;;;;;;;6.53;4.55;;;18.70;94.70;;;;;;5060432;28;20475;-92
2023/07/23 07:12:32;;;;;;;4.93;4.43;;;18.70;94.80;;;;;;5077478;28;20050;-91
2023/07/23 07:14:57;;;;;;;5.15;4.53;;;18.70;94.90;;;;;;5060129;28;20024;-92
2023/07/23 07:17:23;;;;;;;7.30;5.10;;;18.60;94.90;;;;;;5043453;28;20135;-93
2023/07/23 07:19:49;;;;;;;4.95;4.22;;;18.60;95.00;;;;;;5060062;28;20036;-94
2023/07/23 07:22:15;;;;;;;4.85;4.35;;;18.60;95.10;;;;;;5027062;28;20035;-91
2023/07/23 07:24:41;;;;;;;4.82;4.32;;;18.60;95.20;;;;;;5060313;28;20051;-91
2023/07/23 07:27:10;;;;;;;5.10;4.70;;;18.60;95.30;;;;;;5077924;28;20464;-92
2023/07/23 07:29:40;;;;;;;5.00;4.55;;;18.60;95.40;;;;;;5078781;28;20031;-90
2023/07/23 07:32:08;;;;;;;5.03;4.63;;;18.60;95.40;;;;;;5078251;28;20033;-89
2023/07/23 07:34:34;;;;;;;5.55;3.78;;;18.60;95.40;;;;;;5060434;28;20063;-91
2023/07/23 07:37:00;;;;;;;5.25;4.75;;;18.50;95.60;;;;;;5077637;28;20025;-89
2023/07/23 07:39:26;;;;;;;5.45;4.47;;;18.50;95.60;;;;;;5078151;28;20028;-91
2023/07/23 07:41:56;;;;;;;5.03;4.53;;;18.40;95.70;;;;;;5060415;28;20515;-91
2023/07/23 07:44:22;;;;;;;5.50;4.93;;;18.40;95.80;;;;;;5078150;28;20025;-93
2023/07/23 07:46:48;;;;;;;4.93;4.53;;;18.40;95.90;;;;;;5043139;28;20124;-91
2023/07/23 07:49:14;;;;;;;5.70;4.45;;;18.40;96.00;;;;;;5077855;28;20028;-92
2023/07/23 07:51:43;;;;;;;5.65;4.53;;;18.40;96.10;;;;;;5059928;28;20025;-92
2023/07/23 07:54:09;;;;;;;5.38;4.82;;;18.40;96.10;;;;;;5043668;28;20029;-91
2023/07/23 07:56:35;;;;;;;4.68;4.28;;;18.40;96.20;;;;;;5060902;28;20043;-92
2023/07/23 07:59:02;;;;;;;5.40;4.88;;;18.40;96.20;;;;;;5027875;28;20391;-93
2023/07/23 08:01:29;;;;;;;5.78;5.20;;;18.40;96.30;;;;;;5061936;28;20020;-93
2023/07/23 08:03:54;;;;;;;6.28;4.63;;;18.40;96.40;;;;;;5061324;28;20051;-90
2023/07/23 08:06:22;;;;;;;5.75;4.40;;;18.30;96.40;;;;;;5082159;28;20024;-92
2023/07/23 08:08:49;;;;;;;5.10;4.60;;;18.40;96.50;;;;;;5070526;28;20044;-93
2023/07/23 08:11:15;;;;;;;4.93;4.45;;;18.40;96.60;;;;;;5085361;28;20020;-91
2023/07/23 08:13:41;;;;;;;5.05;4.18;;;18.40;96.60;;;;;;5063188;28;20031;-92
2023/07/23 08:16:08;;;;;;;5.30;4.28;;;18.40;96.70;;;;;;5042981;28;20025;-91
2023/07/23 08:18:34;;;;;;;4.90;4.40;;;18.40;96.70;;;;;;5059090;28;20078;-92
2023/07/23 08:21:00;;;;;;;5.38;4.88;;;18.30;96.70;;;;;;5059058;28;20172;-91
2023/07/23 08:23:26;;;;;;;5.30;4.80;;;18.30;96.80;;;;;;5059275;28;20025;-92
2023/07/23 08:25:57;;;;;;;5.78;5.15;;;18.40;97.00;;;;;;5041877;28;20028;-93
2023/07/23 08:28:29;;;;;;;5.55;5.03;;;18.40;97.00;;;;;;5058671;28;20020;-92
2023/07/23 08:30:56;;;;;;;6.18;5.47;;;18.40;97.00;;;;;;5058948;28;20050;-93
2023/07/23 08:33:32;;;;;;;5.80;4.72;;;18.40;97.10;;;;;;5058678;28;20036;-91
2023/07/23 08:35:59;;;;;;;5.53;4.75;;;18.40;97.20;;;;;;5042197;28;20188;-89
2023/07/23 08:38:26;;;;;;;5.00;4.50;;;18.40;97.20;;;;;;5042255;28;20029;-90
2023/07/23 08:41:03;;;;;;;6.05;5.45;;;18.40;97.20;;;;;;5042022;28;20024;-91
2023/07/23 08:43:56;;;;;;;6.57;5.18;;;18.40;97.30;;;;;;5042031;28;20067;-93
2023/07/23 08:46:24;;;;;;;6.50;5.35;;;18.40;97.30;;;;;;5065794;28;20025;-91
2023/07/23 08:48:56;;;;;;;5.72;4.82;;;18.40;97.20;;;;;;5059329;28;20029;-92
2023/07/23 08:51:29;;;;;;;6.55;5.43;;;18.40;97.30;;;;;;5076070;28;20171;-90
2023/07/23 08:53:56;;;;;;;5.90;5.30;;;18.50;97.30;;;;;;5075902;28;20051;-92
2023/07/23 08:56:22;;;;;;;8.60;5.65;;;18.50;97.30;;;;;;5058536;28;20028;-91
2023/07/23 08:58:49;;;;;;;6.03;5.10;;;18.50;97.30;;;;;;5058533;28;20016;-91
2023/07/23 09:01:16;;;;;;;5.32;4.82;;;18.50;97.30;;;;;;5058478;28;20025;-91
2023/07/23 09:03:42;;;;;;;6.38;5.65;;;18.50;97.40;;;;;;5058663;28;20051;-91
2023/07/23 09:06:10;;;;;;;7.78;5.32;;;18.60;97.40;;;;;;5058454;28;20078;-92
2023/07/23 09:08:36;;;;;;;5.47;4.97;;;18.60;97.40;;;;;;5076555;28;20115;-89
2023/07/23 09:11:06;;;;;;;6.85;5.65;;;18.60;97.40;;;;;;5041117;28;20042;-91
2023/07/23 09:13:37;;;;;;;7.35;5.40;;;18.60;97.40;;;;;;5058186;28;20059;-90
2023/07/23 09:16:04;;;;;;;6.47;4.85;;;18.60;97.60;;;;;;5058594;28;20031;-91
2023/07/23 09:18:31;;;;;;;5.07;4.57;;;18.60;97.40;;;;;;5058073;28;20027;-90
2023/07/23 09:20:57;;;;;;;4.63;4.13;;;18.60;97.40;;;;;;5075941;28;20035;-92
2023/07/23 09:23:28;;;;;;;5.63;5.10;;;18.60;97.40;;;;;;5075926;28;20142;-92
2023/07/23 09:25:56;;;;;;;;;;;18.70;97.40;;;;;;5077019;28;20044;-89
2023/07/23 09:28:22;;;;;;;5.25;4.47;;;18.70;97.40;;;;;;5075693;28;19904;-90
2023/07/23 09:30:52;;;;;;;4.78;4.30;;;18.70;97.40;;;;;;5058324;28;20119;-92
2023/07/23 09:33:17;;;;;;;4.72;4.30;;;18.70;97.40;;;;;;5058117;28;20078;-90
2023/07/23 09:35:43;;;;;;;4.85;4.35;;;18.70;97.40;;;;;;5041838;28;20422;-92
2023/07/23 09:38:15;;;;;;;4.78;3.95;;;18.70;97.40;;;;;;5058382;28;20029;-93
2023/07/23 09:40:41;;;;;;;4.22;3.92;;;18.80;97.40;;;;;;5075847;28;20027;-90
2023/07/23 09:43:08;;;;;;;4.43;4.03;;;18.80;97.40;;;;;;5041800;28;20526;-89
2023/07/23 09:45:39;;;;;;;4.60;4.20;;;18.80;97.40;;;;;;5058373;28;20043;-91
2023/07/23 09:48:06;;;;;;;;;;;18.80;97.40;;;;;;5058961;28;20055;-91
2023/07/23 09:50:32;;;;;;;3.92;3.60;;;18.80;97.30;;;;;;5058681;28;19905;-93
2023/07/23 09:52:58;;;;;;;4.07;3.75;;;18.80;97.40;;;;;;5059317;28;20042;-92
2023/07/23 09:55:24;;;;;;;3.53;3.22;;;18.80;97.40;;;;;;5062782;28;20016;-91
2023/07/23 09:57:51;;;;;;;3.58;3.28;;;18.80;97.40;;;;;;5081141;28;20052;-92
2023/07/23 10:00:18;;;;;;;3.58;3.28;;;18.80;97.40;;;;;;5059165;28;20035;-91
2023/07/23 10:02:47;;;;;;;4.25;3.90;;;18.90;97.40;;;;;;5088326;28;20027;-91
2023/07/23 10:05:17;;;;;;;3.88;3.50;;;18.90;97.50;;;;;;5081095;28;20456;-92
2023/07/23 10:07:45;;;;;;;3.75;3.38;;;18.90;97.40;;;;;;5054421;28;20048;-92
2023/07/23 10:10:13;;;;;;;3.63;3.33;;;18.90;97.40;;;;;;5054886;28;20025;-93
2023/07/23 10:12:39;;;;;;;3.85;3.40;;;18.90;97.50;;;;;;5054783;28;20087;-93
2023/07/23 10:15:06;;;;;;;3.13;2.83;;;19.00;97.60;;;;;;5054112;28;20029;-91
2023/07/23 10:17:33;;;;;;;4.22;3.92;;;19.00;97.70;;;;;;5021597;28;20451;-93
2023/07/23 10:20:00;;;;;;;2.95;2.65;;;19.00;97.70;;;;;;5054725;28;20075;-91
2023/07/23 10:22:32;;;;;;;3.90;3.55;;;19.10;97.80;;;;;;5056226;28;20033;-93
2023/07/23 10:24:58;;;;;;;2.78;2.58;;;19.10;97.80;;;;;;5058693;28;20048;-90
2023/07/23 10:27:24;;;;;;;2.85;2.65;;;19.20;97.90;;;;;;5041763;28;20028;-93
2023/07/23 10:30:14;;;;;;;2.75;2.55;;;19.20;97.90;;;;;;5058830;28;20507;-93
2023/07/23 10:32:40;;;;;;;2.97;2.78;;;19.20;98.00;;;;;;5059421;28;20112;-92
2023/07/23 10:35:06;;;;;;;2.53;2.33;;;19.20;98.00;;;;;;5060357;28;20056;-93
2023/07/23 10:37:31;;;;;;;2.83;2.63;;;19.20;98.00;;;;;;5058221;28;20072;-92
2023/07/23 10:40:00;;;;;;;2.72;2.50;;;19.20;98.10;;;;;;5041760;28;20106;-93
2023/07/23 10:42:46;;;;;;;2.30;2.10;;;19.20;98.10;;;;;;5058372;28;20417;-93
2023/07/23 10:45:20;;;;;;;2.50;2.30;;;19.20;98.20;;;;;;5057627;28;20041;-94
2023/07/23 10:47:47;;;;;;;3.25;3.05;;;19.20;98.20;;;;;;5059353;28;20029;-93
2023/07/23 10:50:15;;;;;;;2.85;2.65;;;19.20;98.20;;;;;;5057801;28;20021;-93
2023/07/23 10:52:59;;;;;;;2.72;2.50;;;19.20;98.20;;;;;;5025517;28;20031;-93
2023/07/23 10:55:41;;;;;;;2.58;2.38;;;19.20;98.30;;;;;;5057253;28;20029;-90
2023/07/23 10:58:11;;;;;;;2.35;2.22;;;19.20;98.40;;;;;;5058332;28;20021;-92
2023/07/23 11:00:57;;;;;;;2.85;2.65;;;19.10;98.70;;;;;;5041096;28;20414;-91
2023/07/23 11:03:24;;;;;;;2.47;2.28;;;19.10;98.50;;;;;;5058723;28;20025;-93
2023/07/23 11:05:52;;;;;;;2.33;2.13;;;19.10;98.50;;;;;;5057724;28;20037;-92
2023/07/23 11:08:25;;;;;;;2.58;2.38;;;19.10;98.60;;;;;;5057181;28;20055;-93
2023/07/23 11:11:00;;;;;;;2.83;2.63;;;19.10;98.60;;;;;;5057164;28;20037;-92
2023/07/23 11:13:32;;;;;;;3.08;2.88;;;19.10;98.60;;;;;;5056933;28;20108;-94
2023/07/23 11:15:58;;;;;;;5.35;3.22;;;19.20;98.70;;;;;;5057249;28;20025;-91
2023/07/23 11:18:25;;;;;;;6.60;2.80;;;19.20;98.70;;;;;;5041723;28;20025;-91
2023/07/23 11:20:53;;;;;;;4.13;2.95;;;19.20;98.80;;;;;;5057812;28;20020;-92
2023/07/23 11:23:25;;;;;;;2.70;2.45;;;19.20;98.80;;;;;;5056876;28;20055;-93
2023/07/23 11:25:54;;;;;;;2.92;2.72;;;19.20;98.70;;;;;;5057333;28;20107;-94
2023/07/23 11:28:21;;;;;;;4.38;3.15;;;19.20;98.80;;;;;;5040910;28;20467;-94
2023/07/23 11:30:49;;;;;;;3.38;3.00;;;19.20;98.80;;;;;;5057945;28;20036;-91
2023/07/23 11:33:16;;;;;;;2.90;2.70;;;19.20;98.80;;;;;;5057729;28;20028;-92
2023/07/23 11:35:43;;;;;;;3.35;3.15;;;19.20;98.80;;;;;;5040375;28;20074;-94
2023/07/23 11:38:09;;;;;;;3.22;3.03;;;19.20;98.80;;;;;;5057656;28;20055;-92
2023/07/23 11:40:35;;;;;;;2.97;2.78;;;19.20;98.90;;;;;;5057780;28;20032;-92
2023/07/23 11:43:05;;;;;;;3.55;3.25;;;19.30;99.00;;;;;;5059390;28;20029;-93
2023/07/23 11:45:31;;;;;;;3.03;2.83;;;19.30;99.00;;;;;;5059068;28;20060;-92
2023/07/23 11:47:56;;;;;;;3.40;2.92;;;19.40;99.00;;;;;;5062155;28;20035;-93
2023/07/23 11:50:24;;;;;;;3.88;3.53;;;19.50;99.10;;;;;;5063501;28;20013;-91
2023/07/23 11:52:51;;;;;;;4.22;3.92;;;19.50;99.10;;;;;;5074266;28;20036;-93
2023/07/23 11:55:22;;;;;;;4.10;3.70;;;19.60;99.10;;;;;;5052436;28;20040;-90
2023/07/23 11:57:54;;;;;;;;;;;19.70;99.20;;;;;;5065340;28;20527;-93
2023/07/23 12:00:29;;;;;;;4.10;3.47;;;19.70;99.10;;;;;;5057313;28;20277;-93
2023/07/23 12:02:56;;;;;;;3.85;3.55;;;19.70;99.20;;;;;;5058348;28;20029;-93
2023/07/23 12:05:22;;;;;;;4.10;3.75;;;19.80;99.20;;;;;;5057614;28;20029;-92
2023/07/23 12:07:50;;;;;;;3.80;3.50;;;19.80;99.20;;;;;;5042755;28;20029;-93
2023/07/23 12:10:16;;;;;;;4.57;3.88;;;20.00;99.20;;;;;;5077516;28;20028;-93
2023/07/23 12:12:46;;;;;;;3.75;3.45;;;20.10;99.20;;;;;;5043783;28;20029;-93
2023/07/23 12:15:13;;;;;;;4.35;3.95;;;20.10;99.10;;;;;;5043193;28;20036;-91
2023/07/23 12:17:40;;;;;;;3.92;3.63;;;20.20;99.00;;;;;;5043213;28;20024;-91
2023/07/23 12:20:14;;;;;;;4.43;4.03;;;20.20;98.90;;;;;;5059478;28;20060;-92
2023/07/23 12:22:54;;;;;;;13.18;4.57;;;20.20;99.00;;;;;;5076997;28;20097;-91
2023/07/23 12:25:24;;;;;;;4.15;3.75;;;20.30;98.90;;;;;;5043323;28;20032;-94
2023/07/23 12:27:50;;;;;;;3.60;3.30;;;20.30;98.80;;;;;;5076501;28;20024;-94
2023/07/23 12:30:20;;;;;;;4.20;3.80;;;20.40;98.80;;;;;;5042098;28;20065;-89
2023/07/23 12:32:46;;;;;;;3.45;3.15;;;20.40;98.80;;;;;;5058699;28;20020;-92
2023/07/23 12:35:12;;;;;;;4.18;3.78;;;20.40;98.60;;;;;;5042282;28;20028;-92
2023/07/23 12:37:38;;;;;;;4.57;4.20;;;20.50;98.60;;;;;;5058843;28;20036;-93
2023/07/23 12:40:05;;;;;;;3.83;3.53;;;20.50;98.60;;;;;;5058790;28;20044;-91
2023/07/23 12:42:34;;;;;;;4.38;3.97;;;20.50;98.60;;;;;;5058705;28;20032;-94
2023/07/23 12:45:01;;;;;;;3.63;3.33;;;20.60;98.60;;;;;;5059430;28;20028;-89
2023/07/23 12:47:28;;;;;;;4.90;4.50;;;20.60;98.50;;;;;;5057261;28;20025;-92
2023/07/23 12:49:59;;;;;;;4.03;3.70;;;20.70;98.50;;;;;;5058495;28;20082;-92